createdAt,value
2022-11-24T00:01:10.542Z,6.62
2022-11-24T00:03:39.411Z,6.61
2022-11-24T00:06:10.896Z,6.60
2022-11-24T00:08:41.471Z,6.60
2022-11-24T00:11:14.042Z,6.55
2022-11-24T00:13:45.009Z,6.57
2022-11-24T00:16:19.270Z,6.59
2022-11-24T00:18:51.165Z,6.59
2022-11-24T00:21:21.691Z,6.58
2022-11-24T00:23:51.326Z,6.59
2022-11-24T00:26:23.370Z,6.66
2022-11-24T00:28:55.974Z,6.60
2022-11-24T00:31:28.354Z,6.62
2022-11-24T00:34:00.486Z,6.57
2022-11-24T00:36:32.052Z,6.55
2022-11-24T00:39:02.579Z,6.61
2022-11-24T00:41:32.063Z,6.56
2022-11-24T00:44:02.219Z,6.60
2022-11-24T00:46:31.138Z,6.59
2022-11-24T00:49:00.341Z,6.53
2022-11-24T00:51:30.922Z,6.60
2022-11-24T00:53:59.584Z,6.63
2022-11-24T00:56:30.088Z,6.66
2022-11-24T00:58:58.735Z,6.62
2022-11-24T01:01:31.523Z,6.63
2022-11-24T01:04:02.514Z,6.58
2022-11-24T01:06:32.545Z,6.63
2022-11-24T01:09:01.301Z,6.66
2022-11-24T01:11:54.150Z,6.59
2022-11-24T01:14:24.914Z,6.61
2022-11-24T01:16:55.305Z,6.60
2022-11-24T01:19:24.680Z,6.59
2022-11-24T01:21:53.368Z,6.61
2022-11-24T01:24:22.175Z,6.62
2022-11-24T01:26:50.665Z,6.64
2022-11-24T01:29:19.165Z,6.68
2022-11-24T01:31:47.764Z,6.64
2022-11-24T01:34:17.681Z,6.68
2022-11-24T01:36:46.190Z,6.74
2022-11-24T01:39:14.895Z,6.75
2022-11-24T01:41:43.748Z,6.77
2022-11-24T01:44:27.267Z,6.78
2022-11-24T01:47:01.656Z,6.79
2022-11-24T01:49:41.006Z,6.75
2022-11-24T01:52:17.331Z,6.78
2022-11-24T01:54:52.961Z,6.78
2022-11-24T01:57:28.816Z,6.70
2022-11-24T02:00:05.180Z,6.63
2022-11-24T02:02:44.883Z,6.58
2022-11-24T02:05:22.584Z,6.42
2022-11-24T02:07:55.131Z,6.37
2022-11-24T02:10:24.826Z,6.22
2022-11-24T02:12:58.908Z,6.27
2022-11-24T02:15:28.881Z,6.18
2022-11-24T02:17:59.705Z,6.27
2022-11-24T02:20:29.641Z,6.19
2022-11-24T02:23:06.527Z,6.09
2022-11-24T02:25:46.027Z,6.05
2022-11-24T02:28:20.485Z,6.06
2022-11-24T02:30:49.666Z,5.98
2022-11-24T02:33:20.278Z,5.90
2022-11-24T02:35:49.241Z,5.83
2022-11-24T02:38:17.804Z,5.70
2022-11-24T02:40:50.743Z,5.61
2022-11-24T02:43:24.608Z,5.64
2022-11-24T02:45:53.195Z,5.71
2022-11-24T02:48:22.403Z,5.69
2022-11-24T02:50:51.008Z,5.75
2022-11-24T02:53:19.538Z,5.64
2022-11-24T02:55:48.112Z,5.72
2022-11-24T02:58:16.582Z,5.86
2022-11-24T03:00:46.527Z,5.95
2022-11-24T03:03:15.482Z,6.04
2022-11-24T03:05:43.935Z,6.20
2022-11-24T03:08:13.024Z,6.27
2022-11-24T03:10:41.569Z,6.35
2022-11-24T03:13:10.218Z,6.37
2022-11-24T03:15:39.407Z,6.41
2022-11-24T03:18:09.932Z,6.50
2022-11-24T03:20:38.552Z,6.61
2022-11-24T03:23:07.232Z,6.66
2022-11-24T03:25:35.706Z,6.73
2022-11-24T03:28:04.659Z,6.76
2022-11-24T03:30:33.326Z,6.69
2022-11-24T03:33:01.885Z,6.69
2022-11-24T03:35:31.995Z,6.68
2022-11-24T03:38:00.671Z,6.69
2022-11-24T03:40:29.414Z,6.67
2022-11-24T03:42:58.055Z,6.71
2022-11-24T03:48:15.385Z,6.69
2022-11-24T03:50:45.511Z,6.65
2022-11-24T03:53:13.995Z,6.65
2022-11-24T03:55:44.743Z,6.68
2022-11-24T03:58:13.236Z,6.68
2022-11-24T04:00:41.855Z,6.71
2022-11-24T04:03:10.555Z,6.74
2022-11-24T04:05:39.172Z,6.78
2022-11-24T04:08:09.586Z,6.78
2022-11-24T04:10:40.010Z,6.82
2022-11-24T04:13:13.379Z,6.86
2022-11-24T04:15:43.069Z,6.84
2022-11-24T04:18:14.245Z,6.89
2022-11-24T04:20:44.147Z,6.87
2022-11-24T04:23:14.063Z,6.93
2022-11-24T04:25:43.642Z,6.94
2022-11-24T04:28:13.643Z,6.84
2022-11-24T04:30:44.853Z,6.90
2022-11-24T04:33:14.366Z,6.96
2022-11-24T04:35:43.044Z,6.96
2022-11-24T04:38:12.907Z,6.98
2022-11-24T04:41:03.400Z,7.04
2022-11-24T04:43:36.387Z,7.04
2022-11-24T04:46:11.247Z,7.03
2022-11-24T04:48:39.854Z,7.14
2022-11-24T04:51:08.854Z,7.25
2022-11-24T04:53:38.693Z,7.33
2022-11-24T04:56:08.469Z,7.44
2022-11-24T04:58:37.333Z,7.48
2022-11-24T05:01:09.473Z,7.56
2022-11-24T05:03:38.410Z,7.60
2022-11-24T05:06:08.825Z,7.62
2022-11-24T05:08:38.724Z,7.67
2022-11-24T05:11:08.350Z,7.63
2022-11-24T05:13:36.823Z,7.70
2022-11-24T05:16:06.132Z,7.59
2022-11-24T05:18:34.867Z,7.46
2022-11-24T05:21:03.455Z,7.40
2022-11-24T05:23:32.604Z,7.36
2022-11-24T05:26:04.161Z,7.35
2022-11-24T05:28:33.181Z,7.38
2022-11-24T05:31:02.995Z,7.23
2022-11-24T05:33:33.350Z,7.32
2022-11-24T05:36:03.864Z,7.29
2022-11-24T05:38:34.083Z,7.32
2022-11-24T05:41:06.401Z,7.32
2022-11-24T05:43:34.878Z,7.34
2022-11-24T05:46:03.659Z,7.24
2022-11-24T05:48:32.201Z,7.36
2022-11-24T05:51:03.178Z,7.31
2022-11-24T05:53:35.060Z,7.40
2022-11-24T05:56:06.476Z,7.48
2022-11-24T05:58:35.024Z,7.48
2022-11-24T06:01:07.885Z,7.45
2022-11-24T06:03:36.550Z,7.38
2022-11-24T06:06:05.244Z,7.41
2022-11-24T06:08:34.646Z,7.40
2022-11-24T06:11:17.365Z,7.27
2022-11-24T06:13:48.534Z,7.08
2022-11-24T06:16:17.493Z,7.02
2022-11-24T06:18:46.060Z,6.97
2022-11-24T06:21:14.793Z,6.88
2022-11-24T06:23:43.250Z,6.79
2022-11-24T06:26:13.231Z,6.74
2022-11-24T06:28:42.044Z,6.66
2022-11-24T06:31:12.363Z,6.66
2022-11-24T06:33:40.944Z,6.69
2022-11-24T06:36:15.172Z,6.70
2022-11-24T06:38:43.827Z,6.81
2022-11-24T06:41:16.922Z,6.93
2022-11-24T06:43:46.266Z,7.01
2022-11-24T06:46:14.962Z,7.13
2022-11-24T06:48:43.483Z,7.19
2022-11-24T06:51:14.003Z,7.20
2022-11-24T06:53:43.164Z,7.17
2022-11-24T06:56:19.652Z,7.16
2022-11-24T06:58:50.646Z,7.37
2022-11-24T07:01:21.510Z,7.38
2022-11-24T07:03:50.932Z,7.56
2022-11-24T07:06:20.850Z,7.65
2022-11-24T07:08:50.177Z,7.64
2022-11-24T07:11:24.440Z,7.63
2022-11-24T07:13:58.315Z,7.69
2022-11-24T07:16:29.670Z,7.66
2022-11-24T07:18:58.877Z,7.69
2022-11-24T07:21:29.358Z,7.84
2022-11-24T07:23:59.205Z,7.92
2022-11-24T07:26:29.146Z,7.99
2022-11-24T07:28:57.962Z,7.99
2022-11-24T07:31:26.449Z,8.00
2022-11-24T07:33:56.472Z,7.98
2022-11-24T07:36:25.730Z,8.01
2022-11-24T07:38:54.382Z,8.05
2022-11-24T07:41:23.182Z,8.05
2022-11-24T07:43:53.225Z,8.13
2022-11-24T07:46:22.038Z,8.22
2022-11-24T07:48:50.730Z,8.35
2022-11-24T07:51:19.267Z,8.44
2022-11-24T07:53:47.766Z,8.37
2022-11-24T07:56:16.296Z,8.63
2022-11-24T07:58:49.762Z,8.77
2022-11-24T08:01:22.535Z,8.79
2022-11-24T08:03:51.253Z,8.84
2022-11-24T08:06:27.345Z,8.70
2022-11-24T08:08:57.942Z,8.64
2022-11-24T08:11:27.540Z,8.46
2022-11-24T08:13:56.155Z,8.60
2022-11-24T08:16:26.345Z,8.49
2022-11-24T08:18:56.961Z,8.58
2022-11-24T08:21:26.953Z,8.66
2022-11-24T08:23:57.050Z,8.62
2022-11-24T08:26:26.762Z,8.66
2022-11-24T08:28:58.095Z,8.72
2022-11-24T08:31:33.576Z,8.76
2022-11-24T08:34:04.467Z,8.78
2022-11-24T08:36:34.408Z,8.81
2022-11-24T08:39:03.390Z,8.90
2022-11-24T08:41:33.193Z,8.92
2022-11-24T08:44:01.704Z,9.11
2022-11-24T08:46:31.567Z,9.17
2022-11-24T08:49:00.128Z,9.29
2022-11-24T08:51:29.258Z,9.47
2022-11-24T08:53:58.941Z,9.57
2022-11-24T08:56:29.568Z,9.79
2022-11-24T08:58:59.019Z,9.79
2022-11-24T09:01:28.545Z,9.81
2022-11-24T09:03:59.336Z,9.93
2022-11-24T09:06:30.922Z,9.80
2022-11-24T09:09:00.315Z,9.71
2022-11-24T09:11:30.263Z,9.62
2022-11-24T09:13:58.855Z,9.57
2022-11-24T09:16:30.268Z,9.74
2022-11-24T09:19:02.628Z,9.88
2022-11-24T09:21:34.228Z,9.98
2022-11-24T09:24:02.924Z,10.03
2022-11-24T09:26:34.822Z,10.25
2022-11-24T09:29:06.417Z,10.32
2022-11-24T09:31:39.152Z,10.33
2022-11-24T09:34:14.635Z,10.56
2022-11-24T09:36:43.513Z,10.63
2022-11-24T09:39:12.410Z,10.82
2022-11-24T09:42:06.804Z,10.81
2022-11-24T09:45:26.260Z,10.72
2022-11-24T09:48:11.316Z,10.69
2022-11-24T09:50:41.361Z,10.58
2022-11-24T09:53:17.960Z,10.69
2022-11-24T09:55:50.909Z,10.74
2022-11-24T09:58:35.188Z,10.87
2022-11-24T10:01:13.133Z,11.01
2022-11-24T10:03:45.014Z,10.80
2022-11-24T10:06:25.631Z,10.78
2022-11-24T10:09:25.811Z,11.10
2022-11-24T10:12:06.092Z,11.00
2022-11-24T10:15:18.884Z,10.97
2022-11-24T10:18:22.165Z,10.77
2022-11-24T10:21:05.612Z,10.74
2022-11-24T10:24:03.047Z,10.88
2022-11-24T10:26:37.913Z,11.13
2022-11-24T10:29:22.304Z,11.36
2022-11-24T10:31:56.920Z,11.57
2022-11-24T10:34:33.751Z,11.60
2022-11-24T10:37:14.289Z,11.38
2022-11-24T10:40:01.524Z,11.54
2022-11-24T10:42:33.407Z,11.77
2022-11-24T10:45:03.461Z,11.95
2022-11-24T10:47:32.641Z,12.31
2022-11-24T10:50:06.489Z,12.07
2022-11-24T10:52:42.696Z,11.77
2022-11-24T10:55:14.803Z,11.32
2022-11-24T10:57:43.753Z,11.40
2022-11-24T11:00:35.850Z,11.14
2022-11-24T11:03:20.667Z,10.91
2022-11-24T11:05:54.863Z,10.71
2022-11-24T11:08:27.900Z,10.36
2022-11-24T11:11:21.476Z,10.02
2022-11-24T11:14:01.928Z,9.86
2022-11-24T11:16:39.062Z,10.01
2022-11-24T11:19:56.848Z,10.09
2022-11-24T11:22:29.789Z,10.03
2022-11-24T11:25:20.433Z,10.05
2022-11-24T11:27:50.905Z,10.21
2022-11-24T11:36:16.906Z,10.12
2022-11-24T11:38:48.211Z,10.07
2022-11-24T11:41:26.680Z,9.96
2022-11-24T11:44:29.760Z,9.85
2022-11-24T11:47:02.082Z,9.71
2022-11-24T11:49:30.749Z,9.49
2022-11-24T11:52:32.555Z,9.45
2022-11-24T11:55:36.445Z,9.38
2022-11-24T11:58:36.336Z,9.32
2022-11-24T12:01:27.679Z,9.41
2022-11-24T12:04:13.802Z,9.44
2022-11-24T12:07:07.037Z,9.54
2022-11-24T12:09:57.321Z,9.63
2022-11-24T12:12:51.321Z,9.88
2022-11-24T12:15:32.719Z,9.73
2022-11-24T12:18:55.780Z,9.79
2022-11-24T12:21:26.066Z,9.89
2022-11-24T12:24:10.346Z,9.83
2022-11-24T12:26:47.468Z,9.76
2022-11-24T12:29:45.877Z,9.57
2022-11-24T12:32:38.837Z,9.45
2022-11-24T12:35:23.736Z,9.60
2022-11-24T12:38:06.540Z,9.64
2022-11-24T12:44:00.832Z,9.45
2022-11-24T12:46:44.316Z,9.54
2022-11-24T12:49:29.963Z,9.29
2022-11-24T12:52:07.212Z,9.41
2022-11-24T12:54:41.981Z,9.34
2022-11-24T12:57:21.897Z,9.42
2022-11-24T13:00:01.858Z,9.70
2022-11-24T13:02:53.906Z,9.75
2022-11-24T13:05:33.081Z,10.09
2022-11-24T13:08:06.328Z,10.39
2022-11-24T13:10:55.250Z,10.58
2022-11-24T13:13:58.573Z,10.68
2022-11-24T13:16:36.064Z,10.25
2022-11-24T13:19:16.270Z,10.49
2022-11-24T13:22:01.107Z,10.62
2022-11-24T13:24:36.258Z,10.63
2022-11-24T13:27:45.801Z,10.62
2022-11-24T13:30:54.454Z,10.75
2022-11-24T13:33:38.513Z,10.78
2022-11-24T13:36:33.677Z,10.65
2022-11-24T13:39:05.951Z,10.83
2022-11-24T13:42:10.476Z,10.42
2022-11-24T13:45:00.776Z,10.50
2022-11-24T13:47:40.105Z,10.39
2022-11-24T13:50:43.119Z,10.61
2022-11-24T13:53:23.232Z,10.56
2022-11-24T13:56:00.103Z,10.33
2022-11-24T13:58:37.179Z,10.47
2022-11-24T14:01:21.332Z,10.50
2022-11-24T14:04:34.004Z,10.40
2022-11-24T14:07:09.249Z,10.39
2022-11-24T14:09:45.747Z,10.35
2022-11-24T14:12:18.059Z,10.39
2022-11-24T14:14:50.224Z,10.26
2022-11-24T14:17:23.009Z,10.28
2022-11-24T14:19:54.403Z,10.19
2022-11-24T14:22:26.840Z,10.19
2022-11-24T14:24:58.586Z,10.24
2022-11-24T14:27:32.566Z,10.38
2022-11-24T14:30:05.562Z,10.34
2022-11-24T14:32:34.243Z,10.40
2022-11-24T14:35:03.498Z,10.37
2022-11-24T14:37:32.193Z,10.27
2022-11-24T14:40:00.867Z,10.00
2022-11-24T14:42:29.606Z,9.93
2022-11-24T14:45:03.895Z,10.01
2022-11-24T14:47:36.779Z,9.95
2022-11-24T14:50:13.541Z,10.11
2022-11-24T14:52:51.724Z,10.19
2022-11-24T14:55:31.457Z,10.21
2022-11-24T14:58:01.796Z,9.98
2022-11-24T15:00:34.016Z,9.87
2022-11-24T15:03:17.098Z,9.88
2022-11-24T15:05:56.442Z,9.74
2022-11-24T15:08:28.147Z,9.70
2022-11-24T15:11:01.383Z,9.64
2022-11-24T15:13:38.161Z,9.59
2022-11-24T15:16:16.589Z,9.64
2022-11-24T15:18:47.807Z,9.59
2022-11-24T15:21:19.462Z,9.59
2022-11-24T15:24:08.552Z,9.49
2022-11-24T15:26:41.916Z,9.50
2022-11-24T15:29:11.676Z,9.52
2022-11-24T15:31:46.443Z,9.47
2022-11-24T15:34:19.598Z,9.40
2022-11-24T15:36:48.923Z,9.38
2022-11-24T15:39:20.953Z,9.41
2022-11-24T15:41:59.694Z,9.30
2022-11-24T15:44:34.927Z,9.18
2022-11-24T15:47:05.039Z,9.18
2022-11-24T15:49:33.603Z,9.13
2022-11-24T15:52:02.208Z,9.07
2022-11-24T15:54:30.915Z,9.01
2022-11-24T15:57:00.657Z,8.96
2022-11-24T15:59:31.193Z,8.84
2022-11-24T16:01:59.664Z,8.69
2022-11-24T16:04:29.809Z,8.60
2022-11-24T16:06:58.515Z,8.42
2022-11-24T16:09:27.283Z,8.31
2022-11-24T16:11:56.121Z,8.14
2022-11-24T16:14:24.878Z,8.02
2022-11-24T16:16:53.449Z,8.02
2022-11-24T16:19:22.427Z,7.89
2022-11-24T16:21:52.480Z,7.81
2022-11-24T16:24:21.193Z,7.70
2022-11-24T16:26:49.838Z,7.59
2022-11-24T16:29:20.877Z,7.42
2022-11-24T16:31:50.444Z,7.32
2022-11-24T16:34:19.287Z,7.32
2022-11-24T16:36:48.005Z,7.34
2022-11-24T16:39:18.055Z,7.32
2022-11-24T16:41:46.733Z,7.33
2022-11-24T16:44:15.432Z,7.32
2022-11-24T16:46:44.834Z,7.31
2022-11-24T16:49:17.009Z,7.33
2022-11-24T16:51:45.618Z,7.37
2022-11-24T16:54:14.717Z,7.38
2022-11-24T16:56:44.952Z,7.33
2022-11-24T16:59:13.825Z,7.17
2022-11-24T17:01:43.538Z,7.00
2022-11-24T17:04:13.052Z,6.85
2022-11-24T17:06:41.836Z,6.73
2022-11-24T17:09:10.839Z,6.56
2022-11-24T17:11:39.617Z,6.27
2022-11-24T17:14:11.565Z,6.22
2022-11-24T17:16:41.209Z,6.07
2022-11-24T17:19:09.903Z,5.94
2022-11-24T17:21:38.642Z,5.90
2022-11-24T17:24:15.015Z,5.75
2022-11-24T17:26:48.791Z,5.60
2022-11-24T17:29:19.516Z,5.48
2022-11-24T17:31:48.344Z,5.43
2022-11-24T17:34:16.974Z,5.38
2022-11-24T17:36:46.070Z,5.35
2022-11-24T17:39:14.724Z,5.28
2022-11-24T17:41:43.669Z,5.38
2022-11-24T17:44:12.753Z,5.45
2022-11-24T17:46:42.690Z,5.55
2022-11-24T17:49:13.193Z,5.80
2022-11-24T17:51:41.891Z,6.00
2022-11-24T17:54:45.396Z,6.14
2022-11-24T17:57:14.463Z,6.30
2022-11-24T17:59:43.798Z,6.48
2022-11-24T18:02:13.894Z,6.52
2022-11-24T18:04:42.579Z,6.75
2022-11-24T18:07:11.292Z,6.90
2022-11-24T18:09:39.983Z,7.02
2022-11-24T18:12:09.469Z,7.11
2022-11-24T18:14:38.389Z,7.19
2022-11-24T18:17:07.555Z,7.18
2022-11-24T18:19:37.592Z,7.20
2022-11-24T18:22:06.490Z,7.27
2022-11-24T18:24:35.138Z,7.28
2022-11-24T18:27:03.745Z,7.27
2022-11-24T18:29:32.683Z,7.27
2022-11-24T18:32:01.295Z,7.34
2022-11-24T18:34:29.984Z,7.33
2022-11-24T18:37:00.014Z,7.44
2022-11-24T18:39:29.782Z,7.62
2022-11-24T18:41:58.652Z,7.53
2022-11-24T18:44:27.236Z,7.42
2022-11-24T18:46:56.460Z,7.34
2022-11-24T18:49:25.138Z,7.31
2022-11-24T18:51:54.128Z,7.24
2022-11-24T18:54:24.239Z,7.24
2022-11-24T18:56:53.127Z,7.18
2022-11-24T18:59:22.144Z,7.20
2022-11-24T19:01:51.003Z,7.23
2022-11-24T19:04:19.865Z,7.27
2022-11-24T19:06:48.411Z,7.34
2022-11-24T19:09:22.866Z,7.30
2022-11-24T19:11:57.496Z,7.35
2022-11-24T19:14:26.493Z,7.30
2022-11-24T19:16:58.338Z,7.16
2022-11-24T19:19:34.913Z,7.19
2022-11-24T19:22:11.148Z,7.18
2022-11-24T19:24:41.307Z,7.37
2022-11-24T19:27:11.574Z,7.37
2022-11-24T19:29:44.004Z,7.26
2022-11-24T19:32:14.155Z,7.36
2022-11-24T19:34:43.291Z,7.43
2022-11-24T19:37:15.222Z,7.44
2022-11-24T19:39:44.260Z,7.43
2022-11-24T19:42:14.307Z,7.39
2022-11-24T19:44:42.922Z,7.48
2022-11-24T19:47:11.657Z,7.42
2022-11-24T19:49:40.340Z,7.40
2022-11-24T19:52:11.791Z,7.44
2022-11-24T19:54:40.606Z,7.34
2022-11-24T19:57:09.329Z,7.34
2022-11-24T19:59:39.424Z,7.23
2022-11-24T20:02:08.659Z,7.16
2022-11-24T20:04:42.588Z,7.07
2022-11-24T20:07:13.935Z,7.00
2022-11-24T20:09:42.895Z,7.04
2022-11-24T20:12:11.720Z,7.08
2022-11-24T20:14:41.944Z,7.14
2022-11-24T20:17:12.309Z,7.14
2022-11-24T20:19:41.121Z,7.13
2022-11-24T20:22:12.963Z,7.06
2022-11-24T20:24:42.176Z,7.15
2022-11-24T20:27:14.567Z,7.36
2022-11-24T20:29:47.050Z,7.38
2022-11-24T20:32:19.530Z,7.33
2022-11-24T20:34:48.318Z,7.45
2022-11-24T20:37:16.911Z,7.48
2022-11-24T20:39:45.448Z,7.53
2022-11-24T20:42:14.060Z,7.51
2022-11-24T20:44:43.964Z,7.52
2022-11-24T20:47:12.558Z,7.49
2022-11-24T20:49:41.251Z,7.45
2022-11-24T20:52:09.867Z,7.37
2022-11-24T20:54:39.194Z,7.50
2022-11-24T20:57:09.166Z,7.49
2022-11-24T20:59:37.821Z,7.44
2022-11-24T21:02:08.374Z,7.40
2022-11-24T21:04:37.433Z,7.28
2022-11-24T21:07:06.489Z,7.25
2022-11-24T21:09:35.194Z,7.07
2022-11-24T21:12:03.932Z,6.92
2022-11-24T21:14:35.344Z,6.90
2022-11-24T21:17:04.181Z,6.91
2022-11-24T21:19:34.120Z,6.86
2022-11-24T21:22:02.669Z,6.86
2022-11-24T21:24:31.580Z,6.92
2022-11-24T21:27:00.383Z,6.94
2022-11-24T21:29:28.964Z,6.89
2022-11-24T21:31:57.860Z,6.92
2022-11-24T21:34:26.646Z,6.92
2022-11-24T21:36:56.505Z,6.89
2022-11-24T21:39:25.166Z,6.82
2022-11-24T21:41:53.750Z,6.82
2022-11-24T21:44:22.280Z,6.74
2022-11-24T21:46:55.674Z,6.83
2022-11-24T21:49:24.837Z,6.76
2022-11-24T21:51:55.833Z,6.69
2022-11-24T21:54:26.173Z,6.58
2022-11-24T21:56:55.471Z,6.61
2022-11-24T21:59:24.777Z,6.49
2022-11-24T22:02:00.159Z,6.49
2022-11-24T22:04:29.123Z,6.42
2022-11-24T22:06:57.801Z,6.09
2022-11-24T22:09:27.815Z,5.80
2022-11-24T22:11:56.576Z,5.67
2022-11-24T22:14:25.210Z,5.49
2022-11-24T22:16:54.306Z,5.39
2022-11-24T22:19:22.879Z,5.32
2022-11-24T22:21:51.517Z,5.21
2022-11-24T22:24:25.790Z,5.14
2022-11-24T22:26:57.147Z,5.05
2022-11-24T22:29:25.645Z,4.97
2022-11-24T22:31:54.251Z,4.86
2022-11-24T22:34:22.923Z,4.88
2022-11-24T22:36:51.402Z,4.87
2022-11-24T22:39:20.077Z,4.88
2022-11-24T22:41:48.807Z,4.86
2022-11-24T22:44:18.688Z,4.85
2022-11-24T22:46:47.245Z,4.71
2022-11-24T22:49:15.966Z,4.66
2022-11-24T22:51:44.656Z,4.57
2022-11-24T22:54:14.651Z,4.56
2022-11-24T22:56:43.268Z,4.47
2022-11-24T22:59:11.787Z,4.48
2022-11-24T23:01:41.790Z,4.50
2022-11-24T23:04:10.413Z,4.42
2022-11-24T23:06:39.480Z,4.48
2022-11-24T23:09:08.703Z,4.45
2022-11-24T23:11:40.595Z,4.32
2022-11-24T23:14:14.096Z,4.25
2022-11-24T23:16:44.902Z,4.20
2022-11-24T23:19:13.924Z,4.11
2022-11-24T23:21:42.616Z,4.09
2022-11-24T23:24:14.125Z,4.05
2022-11-24T23:26:43.213Z,4.02
2022-11-24T23:29:12.290Z,4.03
2022-11-24T23:31:40.999Z,3.96
2022-11-24T23:34:11.829Z,3.96
2022-11-24T23:36:40.524Z,3.97
2022-11-24T23:39:15.317Z,4.01
2022-11-24T23:41:43.950Z,3.95
2022-11-24T23:44:12.749Z,3.99
2022-11-24T23:46:41.344Z,4.00
2022-11-24T23:49:11.675Z,4.04
2022-11-24T23:51:41.954Z,4.00
2022-11-24T23:54:10.861Z,3.95
2022-11-24T23:56:39.441Z,3.97
2022-11-24T23:59:11.203Z,3.81
